Terminal Aerodrome Forecast
Issued by NWS Charleston, WV

Current Version | Previous Version | Graphics & Text | Print | Product List | Glossary On
Versions: 1 2 3 4 5 6 7 8 9 10 11 12 13 14 15 16 17 18 19 20 21 22 23 24
000
FTUS41 KRLX 240900 AAB
TAFHTS
TAF AMD
KHTS 240901Z 2409/2506 11005KT P6SM FEW100
      TEMPO 2409/2411 4SM BR SCT090
     FM241200 VRB03KT P6SM BKN035
     FM241800 17011G19KT 3SM SHRA BR VCTS BKN040CB
     FM242100 19012G23KT 6SM SHRA BR BKN035
     FM242300 23018G31KT P6SM BKN025=

USA.gov is the U.S. government's official web portal to all federal, state and local government web resources and services.